NORTHEAST SUFFOLK  -  Special Weather Statement Special Weather Statement        NORTHERN NASSAU  -  Special Weather Statement Special Weather Statement        NORTHWEST SUFFOLK  -  Special Weather Statement Special Weather Statement        SOUTHEAST SUFFOLK  -  Special Weather Statement Special Weather Statement        SOUTHERN NASSAU  -  Special Weather Statement Special Weather Statement        SOUTHWEST SUFFOLK  -  Special Weather Statement Special Weather Statement      

Active alerts

Northern Nassau
  Details for Northern Nassau Special Weather Statement
Southern Nassau
  Details for Southern Nassau Special Weather Statement
Northwest Suffolk
  Details for Northwest Suffolk Special Weather Statement
Southwest Suffolk
  Details for Southwest Suffolk Special Weather Statement
Northeast Suffolk
  Details for Northeast Suffolk Special Weather Statement
Southeast Suffolk
  Details for Southeast Suffolk Special Weather Statement


WXM80 ListenWXM80 Stop

You find our weather info also at:

UK Metoffice

WeatherCloud

Weather Underground

Northeastern Weather Network

AWEKAS

Citizen Weather Observer Program (CWOP)

HAMweather, WeatherForYou, PWS Weather


Weather Underground History page Text

Daily Summary for November 15, 2017 Units:  Metric    English   Both
« Previous Day
Next Day »
Daily Weekly Monthly Yearly Custom
  High: Low: Average:
Temperature: 9.3 °C 4.2 °C 6.8 °C
Dew Point: 4.7 °C 1.7 °C 3.2 °C
Humidity: 86 % 69 % 78 %
Wind Speed: 12.6 km/h 0 km/h 4 km/h
Wind Gust: 18.5 km/h - -
Wind:- - East
Pressure: 1026.3 hPa 1017.5 hPa -
Precipitation: 0 mm    
Historical Graphs
 
 
Tabular Data for November 15, 2017
Time Temperature Dew Point Pressure Wind Wind Speed Wind Gust Humidity Rainfall Rate (Hourly)
00:03 5.5 °C 2.7 °C 1025.6 hPa ENE 7.9 km/h 13 km/h 82 % 0 mm
00:08 5.5 °C 2.7 °C 1025.6 hPa NE 6.9 km/h 16.1 km/h 82 % 0 mm
00:13 5.5 °C 2.7 °C 1025.6 hPa ENE 7.6 km/h 13 km/h 82 % 0 mm
00:18 5.6 °C 2.7 °C 1025.6 hPa ENE 6 km/h 8 km/h 82 % 0 mm
00:23 5.6 °C 2.7 °C 1025.6 hPa ENE 7.4 km/h 11.1 km/h 82 % 0 mm
00:28 5.6 °C 2.7 °C 1025.6 hPa NE 11.7 km/h 14.5 km/h 82 % 0 mm
00:33 5.6 °C 2.8 °C 1025.6 hPa ENE 7.1 km/h 11.1 km/h 82 % 0 mm
00:39 5.7 °C 2.8 °C 1025.6 hPa ENE 6 km/h 13 km/h 82 % 0 mm
00:44 5.7 °C 2.8 °C 1025.6 hPa ENE 9.7 km/h 13 km/h 82 % 0 mm
00:49 5.7 °C 2.9 °C 1025.6 hPa ENE 6.9 km/h 13 km/h 82 % 0 mm
00:54 5.7 °C 2.9 °C 1025.6 hPa ENE 8.9 km/h 13 km/h 82 % 0 mm
00:59 5.8 °C 2.9 °C 1025.6 hPa ENE 8 km/h 13 km/h 82 % 0 mm
01:04 5.8 °C 3 °C 1025.6 hPa ENE 6.4 km/h 13 km/h 82 % 0 mm
01:09 5.8 °C 3 °C 1025.6 hPa NE 4.2 km/h 11.3 km/h 82 % 0 mm
01:14 5.8 °C 3 °C 1025.6 hPa ENE 6.9 km/h 13 km/h 82 % 0 mm
01:19 5.8 °C 2.8 °C 1025.6 hPa NE 4 km/h 7.4 km/h 81 % 0 mm
01:24 5.8 °C 3 °C 1025.6 hPa ENE 5.3 km/h 7.4 km/h 82 % 0 mm
01:29 5.9 °C 3.1 °C 1025.6 hPa NNE 3.7 km/h 11.1 km/h 82 % 0 mm
01:34 5.8 °C 3 °C 1025.6 hPa NE 1 km/h 7.4 km/h 82 % 0 mm
01:39 5.8 °C 3 °C 1025.6 hPa North 7.6 km/h 14.8 km/h 82 % 0 mm
01:44 5.9 °C 3.2 °C 1025.6 hPa NNE 6 km/h 11.1 km/h 83 % 0 mm
01:49 5.8 °C 3.2 °C 1026 hPa NNE 4.7 km/h 11.1 km/h 83 % 0 mm
01:54 5.8 °C 3.2 °C 1026 hPa NNE 4.5 km/h 11.1 km/h 83 % 0 mm
01:59 5.8 °C 3.1 °C 1025.6 hPa ENE 7.6 km/h 14.8 km/h 83 % 0 mm
02:04 5.8 °C 3.1 °C 1025.6 hPa NE 6.6 km/h 11.1 km/h 83 % 0 mm
02:07 5.7 °C 3.1 °C 1025.6 hPa NNE 3.7 km/h 7.4 km/h 83 % 0 mm
02:12 5.7 °C 3 °C 1025.6 hPa NNE 6.9 km/h 14.8 km/h 83 % 0 mm
02:17 5.7 °C 3 °C 1025.6 hPa North 7.7 km/h 11.3 km/h 83 % 0 mm
02:22 5.6 °C 2.9 °C 1025.6 hPa North 4.5 km/h 8 km/h 83 % 0 mm
02:27 5.6 °C 2.9 °C 1025.6 hPa NNE 6.4 km/h 9.7 km/h 83 % 0 mm
02:29 5.6 °C 2.9 °C 1025.6 hPa NNE 5.5 km/h 11.1 km/h 83 % 0 mm
02:34 5.5 °C 2.8 °C 1025.6 hPa NE 2.9 km/h 5.6 km/h 83 % 0 mm
02:39 5.4 °C 2.6 °C 1025.3 hPa ENE 6.1 km/h 11.1 km/h 82 % 0 mm
02:44 5.4 °C 2.7 °C 1025.6 hPa North 5.3 km/h 13 km/h 83 % 0 mm
02:49 5.4 °C 2.7 °C 1025.6 hPa ENE 6 km/h 6 km/h 83 % 0 mm
02:54 5.3 °C 2.7 °C 1025.6 hPa ENE 5.1 km/h 11.1 km/h 83 % 0 mm
02:59 5.3 °C 2.6 °C 1025.6 hPa NE 2.4 km/h 5.6 km/h 83 % 0 mm
03:04 5.3 °C 2.6 °C 1025.6 hPa ENE 6.3 km/h 13 km/h 83 % 0 mm
03:09 5.2 °C 2.6 °C 1025.6 hPa North 0.6 km/h 9.3 km/h 83 % 0 mm
03:14 5.2 °C 2.6 °C 1025.6 hPa NNE 9.5 km/h 13 km/h 83 % 0 mm
03:19 5.2 °C 2.5 °C 1025.6 hPa NE 1.6 km/h 3.7 km/h 83 % 0 mm
03:24 5.2 °C 2.7 °C 1025.6 hPa NNE 4.5 km/h 7.4 km/h 84 % 0 mm
03:29 5.2 °C 2.7 °C 1026 hPa NE 5.1 km/h 7.4 km/h 84 % 0 mm
03:34 5.1 °C 2.6 °C 1026 hPa ENE 3.7 km/h 7.4 km/h 84 % 0 mm
03:39 5.1 °C 2.4 °C 1025.6 hPa ENE 3.2 km/h 5.6 km/h 83 % 0 mm
03:44 5.1 °C 2.4 °C 1026 hPa North 3.7 km/h 7.4 km/h 83 % 0 mm
03:49 5.1 °C 2.4 °C 1025.6 hPa ENE 3.2 km/h 5.6 km/h 83 % 0 mm
03:54 5.1 °C 2.4 °C 1025.6 hPa NE 9.8 km/h 16.7 km/h 83 % 0 mm
03:59 5 °C 2.3 °C 1026 hPa NE 6.4 km/h 11.1 km/h 83 % 0 mm
04:04 5 °C 2.3 °C 1025.6 hPa NE 3.9 km/h 5.6 km/h 83 % 0 mm
04:09 5 °C 2.3 °C 1025.6 hPa ENE 7.2 km/h 12.9 km/h 83 % 0 mm
04:14 5 °C 2.3 °C 1026 hPa ENE 4 km/h 6.4 km/h 83 % 0 mm
04:19 4.9 °C 2.3 °C 1026 hPa ENE 4.7 km/h 13 km/h 83 % 0 mm
04:25 4.9 °C 2.3 °C 1026 hPa ENE 5.3 km/h 11.1 km/h 83 % 0 mm
04:30 4.9 °C 2.1 °C 1026 hPa NE 1.8 km/h 7.4 km/h 82 % 0 mm
04:35 4.9 °C 2.1 °C 1025.6 hPa ENE 5 km/h 8 km/h 82 % 0 mm
04:40 4.9 °C 2.1 °C 1026 hPa NNE 2.1 km/h 14.8 km/h 82 % 0 mm
04:45 4.9 °C 2.1 °C 1025.6 hPa ENE 5.8 km/h 11.1 km/h 82 % 0 mm
04:50 4.8 °C 2 °C 1026 hPa NE 7.2 km/h 14.8 km/h 82 % 0 mm
04:55 4.8 °C 2 °C 1026 hPa ENE 6.6 km/h 11.1 km/h 82 % 0 mm
05:00 4.8 °C 2 °C 1025.6 hPa ENE 6.6 km/h 13 km/h 82 % 0 mm
05:05 4.8 °C 1.9 °C 1025.6 hPa East 7.4 km/h 13 km/h 82 % 0 mm
05:10 4.8 °C 1.9 °C 1025.6 hPa NE 2.4 km/h 5.6 km/h 82 % 0 mm
05:15 4.8 °C 1.9 °C 1025.6 hPa NNE 3.5 km/h 7.4 km/h 82 % 0 mm
05:20 4.7 °C 1.9 °C 1025.6 hPa ENE 7.1 km/h 11.1 km/h 82 % 0 mm
05:25 4.7 °C 1.8 °C 1025.6 hPa ENE 5.1 km/h 7.4 km/h 82 % 0 mm
05:30 4.7 °C 1.8 °C 1026 hPa NE 4.7 km/h 5.6 km/h 82 % 0 mm
05:35 4.6 °C 1.8 °C 1026 hPa ENE 8.9 km/h 13 km/h 82 % 0 mm
05:40 4.6 °C 1.8 °C 1026 hPa ENE 2.6 km/h 5.6 km/h 82 % 0 mm
05:45 4.6 °C 1.8 °C 1026 hPa ENE 6.1 km/h 8 km/h 82 % 0 mm
05:50 4.6 °C 1.7 °C 1025.6 hPa NE 3.7 km/h 11.1 km/h 82 % 0 mm
05:55 4.6 °C 1.9 °C 1025.6 hPa ENE 3.1 km/h 6.4 km/h 83 % 0 mm
06:00 4.6 °C 1.9 °C 1025.6 hPa NNE 3.7 km/h 14.8 km/h 83 % 0 mm
06:05 4.5 °C 1.9 °C 1025.6 hPa NE 4.3 km/h 8 km/h 83 % 0 mm
06:10 4.4 °C 1.8 °C 1025.6 hPa NE 7.1 km/h 11.3 km/h 83 % 0 mm
06:15 4.4 °C 1.8 °C 1025.6 hPa NNE 3.1 km/h 5.6 km/h 83 % 0 mm
06:20 4.4 °C 1.9 °C 1025.6 hPa ENE 7.6 km/h 11.1 km/h 84 % 0 mm
06:25 4.3 °C 1.9 °C 1025.6 hPa NNE 3.2 km/h 7.4 km/h 84 % 0 mm
06:30 4.3 °C 1.9 °C 1025.6 hPa NE 7.6 km/h 13 km/h 84 % 0 mm
06:35 4.3 °C 1.9 °C 1025.6 hPa NNE 6.3 km/h 9.3 km/h 84 % 0 mm
06:40 4.3 °C 1.8 °C 1025.6 hPa NNE 2.3 km/h 5.6 km/h 84 % 0 mm
06:46 4.3 °C 1.8 °C 1025.6 hPa NNE 5.3 km/h 6.4 km/h 84 % 0 mm
06:51 4.3 °C 2 °C 1025.6 hPa NE 4.8 km/h 16.1 km/h 85 % 0 mm
06:56 4.2 °C 1.9 °C 1025.6 hPa NE 4.8 km/h 12.9 km/h 85 % 0 mm
07:01 4.2 °C 1.9 °C 1026 hPa NE 1.4 km/h 5.6 km/h 85 % 0 mm
07:06 4.2 °C 1.9 °C 1026 hPa ENE 6.6 km/h 9.3 km/h 85 % 0 mm
07:11 4.2 °C 1.9 °C 1025.6 hPa ENE 10.3 km/h 12.9 km/h 85 % 0 mm
07:16 4.2 °C 1.8 °C 1025.6 hPa ENE 7.4 km/h 11.3 km/h 84 % 0 mm
07:21 4.3 °C 2 °C 1025.6 hPa ENE 10.1 km/h 14.8 km/h 85 % 0 mm
07:31 4.4 °C 2.1 °C 1026 hPa ENE 8.7 km/h 13 km/h 85 % 0 mm
07:36 4.4 °C 2.2 °C 1026 hPa East 5.6 km/h 11.3 km/h 85 % 0 mm
07:41 4.5 °C 2.2 °C 1026 hPa NE 7.1 km/h 13 km/h 85 % 0 mm
07:46 4.5 °C 2.2 °C 1026 hPa ENE 7.9 km/h 14.8 km/h 85 % 0 mm
07:51 4.6 °C 2.4 °C 1026 hPa ENE 6.3 km/h 11.1 km/h 86 % 0 mm
07:56 4.6 °C 2.4 °C 1026 hPa ENE 2.9 km/h 5.6 km/h 86 % 0 mm
08:01 4.7 °C 2.6 °C 1026 hPa ENE 10.1 km/h 14.8 km/h 86 % 0 mm
08:06 4.8 °C 2.6 °C 1026 hPa NE 10 km/h 13 km/h 86 % 0 mm
08:11 4.9 °C 2.6 °C 1026 hPa ENE 8 km/h 14.8 km/h 85 % 0 mm
08:16 5 °C 2.7 °C 1026 hPa ENE 8.7 km/h 16.7 km/h 85 % 0 mm
08:21 5.1 °C 2.8 °C 1026 hPa ENE 8.2 km/h 16.7 km/h 85 % 0 mm
08:26 5.2 °C 2.8 °C 1026 hPa NE 8.5 km/h 16.7 km/h 85 % 0 mm
08:31 5.2 °C 2.9 °C 1026.3 hPa NE 9.3 km/h 16.7 km/h 85 % 0 mm
08:36 5.3 °C 3 °C 1026.3 hPa NE 10.9 km/h 13 km/h 85 % 0 mm
08:41 5.4 °C 3.1 °C 1026.3 hPa ENE 10.3 km/h 18.5 km/h 85 % 0 mm
08:46 5.6 °C 3.2 °C 1026 hPa ENE 8.7 km/h 14.8 km/h 85 % 0 mm
08:51 5.7 °C 3.2 °C 1026 hPa ENE 9 km/h 14.8 km/h 84 % 0 mm
08:56 5.7 °C 3.2 °C 1026 hPa ENE 12.4 km/h 16.7 km/h 84 % 0 mm
09:01 5.8 °C 3.3 °C 1026 hPa East 11.3 km/h 16.7 km/h 84 % 0 mm
09:06 5.8 °C 3.2 °C 1026 hPa NE 11.3 km/h 13 km/h 83 % 0 mm
09:11 5.8 °C 3.3 °C 1026 hPa ENE 10.1 km/h 18.5 km/h 84 % 0 mm
09:16 5.8 °C 3.2 °C 1025.6 hPa ENE 11.6 km/h 18.5 km/h 83 % 0 mm
09:19 5.8 °C 3.2 °C 1025.6 hPa NE 9.7 km/h 13 km/h 83 % 0 mm
09:24 6 °C 3.5 °C 1025.6 hPa ENE 11.1 km/h 14.8 km/h 84 % 0 mm
09:29 6.1 °C 3.6 °C 1026 hPa ENE 8 km/h 13 km/h 84 % 0 mm
09:34 6.1 °C 3.4 °C 1026 hPa NE 9.2 km/h 14.5 km/h 83 % 0 mm
09:44 6.2 °C 3.5 °C 1025.6 hPa ENE 7.9 km/h 13 km/h 83 % 0 mm
09:49 6.3 °C 3.8 °C 1025.6 hPa NE 9.2 km/h 16.7 km/h 84 % 0 mm
09:54 6.5 °C 3.7 °C 1025.3 hPa ENE 6.4 km/h 14.8 km/h 82 % 0 mm
09:59 6.4 °C 3.8 °C 1025.3 hPa ENE 5 km/h 11.1 km/h 83 % 0 mm
10:04 6.4 °C 3.7 °C 1025.6 hPa East 5.5 km/h 9.3 km/h 83 % 0 mm
10:09 6.4 °C 3.9 °C 1025.3 hPa ENE 10.3 km/h 14.8 km/h 84 % 0 mm
10:14 6.5 °C 3.7 °C 1025.6 hPa East 5.8 km/h 13 km/h 82 % 0 mm
10:19 6.5 °C 3.5 °C 1025.3 hPa NE 7.6 km/h 11.1 km/h 81 % 0 mm
10:24 6.7 °C 3.4 °C 1025.3 hPa East 10.9 km/h 16.7 km/h 80 % 0 mm
10:29 6.7 °C 3.5 °C 1025.3 hPa ENE 7.4 km/h 18.5 km/h 80 % 0 mm
10:34 7 °C 4.1 °C 1025.3 hPa ENE 6.3 km/h 12.9 km/h 82 % 0 mm
10:39 7.4 °C 4.3 °C 1024.9 hPa ENE 7.6 km/h 11.1 km/h 81 % 0 mm
10:44 7.6 °C 3.9 °C 1024.9 hPa East 5.3 km/h 13 km/h 78 % 0 mm
10:55 8.1 °C 4.4 °C 1024.6 hPa ENE 5.6 km/h 13 km/h 78 % 0 mm
11:00 8.1 °C 4.3 °C 1024.6 hPa ENE 3.9 km/h 7.4 km/h 77 % 0 mm
11:05 8 °C 4.4 °C 1024.6 hPa ENE 6.8 km/h 12.9 km/h 78 % 0 mm
11:10 7.9 °C 4.2 °C 1024.3 hPa East 3.9 km/h 8 km/h 77 % 0 mm
11:15 8 °C 4.4 °C 1024.3 hPa East 1.4 km/h 5.6 km/h 78 % 0 mm
11:18 8.1 °C 4.3 °C 1024.3 hPa ENE 12.6 km/h 14.8 km/h 77 % 0 mm
11:23 8.1 °C 3.9 °C 1023.9 hPa ENE 2.6 km/h 3.7 km/h 75 % 0 mm
11:28 8.1 °C 3.9 °C 1024.3 hPa NE 1.8 km/h 5.6 km/h 75 % 0 mm
11:33 8.2 °C 4 °C 1023.9 hPa East 5.5 km/h 13 km/h 75 % 0 mm
11:38 8.1 °C 3.6 °C 1023.9 hPa ENE 4.7 km/h 7.4 km/h 73 % 0 mm
11:43 8.1 °C 3.8 °C 1023.9 hPa ENE 3.7 km/h 8 km/h 74 % 0 mm
11:48 8.2 °C 3.8 °C 1023.9 hPa East 4 km/h 9.7 km/h 74 % 0 mm
11:50 8.2 °C 3.8 °C 1023.9 hPa ENE 5.8 km/h 9.3 km/h 74 % 0 mm
11:55 8.2 °C 4 °C 1023.6 hPa ENE 2.9 km/h 5.6 km/h 75 % 0 mm
12:00 8.4 °C 4.4 °C 1023.6 hPa ENE 4.3 km/h 9.3 km/h 76 % 0 mm
12:05 8.7 °C 4.7 °C 1023.6 hPa ENE 2.7 km/h 5.6 km/h 76 % 0 mm
12:10 8.7 °C 4.3 °C 1023.2 hPa ENE 4.7 km/h 14.8 km/h 74 % 0 mm
12:15 8.6 °C 4.1 °C 1023.2 hPa ENE 7.1 km/h 13 km/h 73 % 0 mm
12:20 8.6 °C 3.8 °C 1022.9 hPa ENE 2.1 km/h 11.1 km/h 72 % 0 mm
12:25 8.5 °C 3.6 °C 1022.9 hPa ENE 6.8 km/h 11.3 km/h 71 % 0 mm
12:30 8.6 °C 4 °C 1022.9 hPa ENE 6.4 km/h 11.1 km/h 73 % 0 mm
12:35 8.6 °C 3.8 °C 1022.9 hPa NE 2.7 km/h 5.6 km/h 72 % 0 mm
12:40 8.6 °C 3.6 °C 1022.6 hPa ENE 9.3 km/h 13 km/h 71 % 0 mm
12:45 8.6 °C 3.8 °C 1022.6 hPa ENE 3.7 km/h 5.6 km/h 72 % 0 mm
12:50 8.5 °C 3.7 °C 1022.6 hPa ENE 7.9 km/h 11.1 km/h 72 % 0 mm
12:55 8.4 °C 3.7 °C 1022.6 hPa NE 4.2 km/h 9.3 km/h 72 % 0 mm
13:00 8.4 °C 3.9 °C 1022.9 hPa ENE 0.2 km/h 1.9 km/h 73 % 0 mm
13:05 8.5 °C 3.9 °C 1022.6 hPa ENE 4.7 km/h 6.4 km/h 73 % 0 mm
13:10 8.6 °C 3.8 °C 1022.6 hPa ENE 1.6 km/h 8 km/h 72 % 0 mm
13:16 8.6 °C 3.9 °C 1022.2 hPa ENE 3.2 km/h 11.3 km/h 72 % 0 mm
13:21 8.7 °C 3.8 °C 1022.2 hPa ENE 9.7 km/h 14.5 km/h 71 % 0 mm
13:25 8.9 °C 3.9 °C 1022.2 hPa ENE 6.1 km/h 6.1 km/h 71 % 0 mm
13:31 9.1 °C 4.1 °C 1022.2 hPa ENE 4.8 km/h 12.9 km/h 71 % 0 mm
13:35 9.2 °C 4.2 °C 1021.9 hPa ENE 4.8 km/h 11.3 km/h 71 % 0 mm
13:40 9.3 °C 4.1 °C 1021.9 hPa ENE 4.8 km/h 12.9 km/h 70 % 0 mm
13:46 9.3 °C 3.9 °C 1021.9 hPa ENE 9.7 km/h 14.5 km/h 69 % 0 mm
13:51 9.2 °C 3.9 °C 1021.9 hPa ENE 3.2 km/h 8 km/h 70 % 0 mm
13:55 9.1 °C 3.9 °C 1021.6 hPa ENE 8 km/h 12.9 km/h 70 % 0 mm
14:01 9.1 °C 3.9 °C 1021.6 hPa ENE 6.4 km/h 11.1 km/h 70 % 0 mm
14:06 9.1 °C 3.9 °C 1021.6 hPa ENE 3.4 km/h 7.4 km/h 70 % 0 mm
14:11 9.1 °C 3.9 °C 1021.6 hPa ENE 1.3 km/h 3.7 km/h 70 % 0 mm
14:16 9 °C 3.8 °C 1021.6 hPa ENE 4.8 km/h 7.4 km/h 70 % 0 mm
14:21 8.9 °C 3.8 °C 1021.6 hPa ENE 5.5 km/h 8 km/h 70 % 0 mm
14:26 8.8 °C 3.8 °C 1021.6 hPa ENE 4.3 km/h 11.3 km/h 71 % 0 mm
14:31 8.8 °C 4 °C 1021.9 hPa NE 4.7 km/h 6.4 km/h 72 % 0 mm
14:36 8.7 °C 3.9 °C 1021.9 hPa ENE 0.3 km/h 1.9 km/h 72 % 0 mm
14:41 8.7 °C 3.9 °C 1021.6 hPa ENE 1.3 km/h 1.9 km/h 72 % 0 mm
14:46 8.7 °C 3.9 °C 1021.6 hPa Calm   5.6 km/h 72 % 0 mm
14:51 8.7 °C 3.9 °C 1021.6 hPa ENE 0.2 km/h 3.7 km/h 72 % 0 mm
14:56 8.6 °C 3.7 °C 1021.6 hPa Calm   1.9 km/h 71 % 0 mm
15:01 8.6 °C 3.8 °C 1021.6 hPa ENE 0.8 km/h 1.9 km/h 72 % 0 mm
15:06 8.7 °C 3.9 °C 1021.6 hPa Calm     72 % 0 mm
15:11 8.7 °C 3.9 °C 1021.2 hPa ENE 0.2 km/h 3.2 km/h 72 % 0 mm
15:16 8.8 °C 3.8 °C 1021.2 hPa East 0.3 km/h 1.9 km/h 71 % 0 mm
15:21 8.8 °C 3.8 °C 1021.2 hPa Calm     71 % 0 mm
15:26 8.7 °C 3.8 °C 1021.2 hPa East 1.3 km/h 3.7 km/h 71 % 0 mm
15:32 8.7 °C 3.7 °C 1021.2 hPa Calm   1.9 km/h 71 % 0 mm
15:37 8.7 °C 3.7 °C 1021.6 hPa Calm     71 % 0 mm
15:42 8.6 °C 3.7 °C 1021.6 hPa Calm     71 % 0 mm
15:47 8.6 °C 3.8 °C 1021.2 hPa Calm     72 % 0 mm
15:52 8.5 °C 3.9 °C 1021.2 hPa East 1 km/h 3.7 km/h 73 % 0 mm
15:57 8.4 °C 3.8 °C 1021.6 hPa Calm     73 % 0 mm
16:02 8.3 °C 3.8 °C 1021.6 hPa Calm     73 % 0 mm
16:07 8.3 °C 3.8 °C 1021.6 hPa Calm     73 % 0 mm
16:12 8.3 °C 3.7 °C 1021.6 hPa Calm     73 % 0 mm
16:17 8.2 °C 3.7 °C 1021.6 hPa Calm     73 % 0 mm
16:22 8.2 °C 3.6 °C 1021.6 hPa Calm     73 % 0 mm
16:27 8.1 °C 3.7 °C 1021.6 hPa Calm     74 % 0 mm
16:32 8 °C 3.7 °C 1021.6 hPa Calm     74 % 0 mm
16:37 7.9 °C 3.6 °C 1021.2 hPa Calm     74 % 0 mm
16:42 7.8 °C 3.5 °C 1021.2 hPa Calm     74 % 0 mm
16:47 7.8 °C 3.6 °C 1021.2 hPa East 0.2 km/h 1.9 km/h 75 % 0 mm
16:52 7.7 °C 3.6 °C 1021.2 hPa Calm   1.9 km/h 75 % 0 mm
16:57 7.7 °C 3.5 °C 1021.2 hPa Calm   1.9 km/h 75 % 0 mm
17:00 7.6 °C 3.4 °C 1021.2 hPa East 0.2 km/h 1.9 km/h 75 % 0 mm
17:05 7.6 °C 3.4 °C 1021.2 hPa East 0.8 km/h 3.7 km/h 75 % 0 mm
17:07 7.6 °C 3.4 °C 1021.2 hPa East 1 km/h 1.9 km/h 75 % 0 mm
17:12 7.6 °C 3.4 °C 1021.2 hPa East 0.5 km/h 1.9 km/h 75 % 0 mm
17:17 7.5 °C 3.3 °C 1020.9 hPa East 0.8 km/h 1.9 km/h 75 % 0 mm
17:22 7.4 °C 3.1 °C 1020.9 hPa East 0.5 km/h 3.7 km/h 74 % 0 mm
17:27 7.4 °C 3.1 °C 1021.2 hPa Calm   1.9 km/h 74 % 0 mm
17:32 7.4 °C 3.1 °C 1020.9 hPa Calm   1.9 km/h 74 % 0 mm
17:37 7.4 °C 3.1 °C 1021.2 hPa ESE 0.5 km/h 3.7 km/h 74 % 0 mm
17:42 7.4 °C 2.9 °C 1020.9 hPa ESE 0.8 km/h 3.7 km/h 73 % 0 mm
17:47 7.4 °C 3.1 °C 1020.9 hPa ESE 0.3 km/h 1.9 km/h 74 % 0 mm
17:52 7.3 °C 3 °C 1021.2 hPa Calm   1.9 km/h 74 % 0 mm
17:57 7.3 °C 3 °C 1021.2 hPa Calm     74 % 0 mm
18:02 7.3 °C 3 °C 1021.2 hPa SE 0.8 km/h 5.6 km/h 74 % 0 mm
18:07 7.3 °C 2.9 °C 1020.9 hPa SE 0.3 km/h 3.2 km/h 74 % 0 mm
18:12 7.2 °C 2.7 °C 1020.9 hPa SE 0.5 km/h 5.6 km/h 73 % 0 mm
18:17 7.2 °C 2.7 °C 1020.9 hPa ESE 4 km/h 11.1 km/h 73 % 0 mm
18:22 7.2 °C 2.7 °C 1020.9 hPa Calm     73 % 0 mm
18:27 7.2 °C 2.7 °C 1020.9 hPa Calm     73 % 0 mm
18:32 7.2 °C 2.8 °C 1020.9 hPa SE 1.4 km/h 3.7 km/h 74 % 0 mm
18:37 7.2 °C 2.7 °C 1020.9 hPa Calm     73 % 0 mm
18:42 7.2 °C 2.7 °C 1020.9 hPa SE 0.2 km/h 1.9 km/h 73 % 0 mm
18:47 7.1 °C 2.8 °C 1020.9 hPa SE 0.2 km/h 1.9 km/h 74 % 0 mm
18:52 7.1 °C 2.8 °C 1020.9 hPa Calm     74 % 0 mm
18:57 7.1 °C 2.8 °C 1020.9 hPa Calm     74 % 0 mm
19:02 7.1 °C 2.7 °C 1020.9 hPa Calm     74 % 0 mm
19:07 7.1 °C 2.9 °C 1020.9 hPa Calm     75 % 0 mm
19:12 7.1 °C 2.9 °C 1020.5 hPa Calm     75 % 0 mm
19:18 7.1 °C 2.9 °C 1020.5 hPa Calm     75 % 0 mm
19:23 7.1 °C 2.9 °C 1020.5 hPa Calm     75 % 0 mm
19:28 7.1 °C 2.9 °C 1020.5 hPa SE 0.3 km/h 1.9 km/h 75 % 0 mm
19:33 7.1 °C 2.9 °C 1020.5 hPa SE 0.2 km/h 5.6 km/h 75 % 0 mm
19:38 7.1 °C 2.9 °C 1020.5 hPa Calm     75 % 0 mm
19:43 7.1 °C 2.9 °C 1020.2 hPa Calm     75 % 0 mm
19:48 7.1 °C 3.1 °C 1020.2 hPa Calm     76 % 0 mm
19:53 7.1 °C 3.1 °C 1019.9 hPa Calm     76 % 0 mm
19:58 7.1 °C 3.1 °C 1019.9 hPa SSE 0.2 km/h 1.9 km/h 76 % 0 mm
20:03 7.1 °C 3.1 °C 1019.9 hPa SE 0.8 km/h 5.6 km/h 76 % 0 mm
20:08 7.1 °C 3.2 °C 1019.9 hPa SE 1.4 km/h 4.8 km/h 76 % 0 mm
20:13 7.2 °C 3.2 °C 1019.5 hPa ESE 1 km/h 5.6 km/h 76 % 0 mm
20:18 7.2 °C 3.2 °C 1019.5 hPa SE 4.3 km/h 9.3 km/h 76 % 0 mm
20:21 7.2 °C 3.2 °C 1019.5 hPa SE 1.6 km/h 9.7 km/h 76 % 0 mm
20:26 7.2 °C 3.5 °C 1019.5 hPa SE 3.2 km/h 12.9 km/h 77 % 0 mm
20:31 7.3 °C 3.5 °C 1019.2 hPa SE 4.7 km/h 7.4 km/h 77 % 0 mm
20:36 7.3 °C 3.6 °C 1019.5 hPa SE 3.7 km/h 9.3 km/h 77 % 0 mm
20:41 7.4 °C 3.6 °C 1019.2 hPa SE 1.6 km/h 8 km/h 77 % 0 mm
20:46 7.4 °C 3.8 °C 1019.2 hPa SE 1.6 km/h 9.7 km/h 78 % 0 mm
20:51 7.5 °C 3.7 °C 1019.2 hPa SE 3.2 km/h 11.3 km/h 77 % 0 mm
20:56 7.6 °C 3.8 °C 1019.2 hPa SE 4.8 km/h 9.7 km/h 77 % 0 mm
21:01 7.7 °C 3.9 °C 1018.8 hPa SE 4.7 km/h 11.1 km/h 77 % 0 mm
21:06 7.7 °C 3.9 °C 1019.2 hPa SE 4 km/h 6.4 km/h 77 % 0 mm
21:11 7.7 °C 3.9 °C 1019.2 hPa SE 2.7 km/h 16.7 km/h 77 % 0 mm
21:16 7.8 °C 4 °C 1018.8 hPa SSE 2.3 km/h 5.6 km/h 77 % 0 mm
21:21 7.8 °C 4.1 °C 1018.8 hPa SSE 4.8 km/h 6.4 km/h 77 % 0 mm
21:26 7.8 °C 4.1 °C 1018.8 hPa SE 2.6 km/h 7.4 km/h 77 % 0 mm
21:31 7.9 °C 4.1 °C 1018.8 hPa SE 3.1 km/h 6.4 km/h 77 % 0 mm
21:36 7.9 °C 4.2 °C 1018.8 hPa SSE 4.8 km/h 7.4 km/h 77 % 0 mm
21:41 7.9 °C 4.2 °C 1018.8 hPa SE 5.3 km/h 9.3 km/h 77 % 0 mm
21:46 8 °C 4.2 °C 1018.8 hPa Calm   1.9 km/h 77 % 0 mm
21:51 8 °C 4.2 °C 1018.8 hPa SE 4.5 km/h 6.4 km/h 77 % 0 mm
21:56 8 °C 4.2 °C 1018.5 hPa Calm     77 % 0 mm
22:01 8.1 °C 4.3 °C 1018.8 hPa SE 1.1 km/h 5.6 km/h 77 % 0 mm
22:06 8.1 °C 4.3 °C 1018.8 hPa SE 2.3 km/h 5.6 km/h 77 % 0 mm
22:11 8.1 °C 4.3 °C 1018.5 hPa SE 0.5 km/h 3.7 km/h 77 % 0 mm
22:16 8.1 °C 4.3 °C 1018.5 hPa SE 0.2 km/h 1.9 km/h 77 % 0 mm
22:21 8.1 °C 4.3 °C 1018.5 hPa Calm   3.7 km/h 77 % 0 mm
22:22 8.1 °C 4.3 °C 1018.5 hPa Calm   3.7 km/h 77 % 0 mm
22:23 8.1 °C 4.3 °C 1018.5 hPa SE 0.6 km/h 5.6 km/h 77 % 0 mm
22:28 8.1 °C 4.3 °C 1018.5 hPa SE 0.3 km/h 1.6 km/h 77 % 0 mm
22:33 8.1 °C 4.3 °C 1018.5 hPa SE 2.1 km/h 5.6 km/h 77 % 0 mm
22:38 8.1 °C 4.3 °C 1018.2 hPa SE 3.9 km/h 6.4 km/h 77 % 0 mm
22:43 8.1 °C 4.3 °C 1018.2 hPa SE 1.1 km/h 5.6 km/h 77 % 0 mm
22:48 8.1 °C 4.3 °C 1018.2 hPa Calm   1.9 km/h 77 % 0 mm
22:54 8.1 °C 4.3 °C 1018.2 hPa SE 1.4 km/h 3.7 km/h 77 % 0 mm
22:59 8.1 °C 4.3 °C 1018.2 hPa SE 2.3 km/h 5.6 km/h 77 % 0 mm
23:04 8.1 °C 4.3 °C 1018.2 hPa SE 2.6 km/h 5.6 km/h 77 % 0 mm
23:09 8.1 °C 4.3 °C 1017.8 hPa SE 1 km/h 7.4 km/h 77 % 0 mm
23:14 8.1 °C 4.3 °C 1017.8 hPa SE 3.1 km/h 5.6 km/h 77 % 0 mm
23:19 8.1 °C 4.3 °C 1017.8 hPa SE 1.9 km/h 5.6 km/h 77 % 0 mm
23:24 8.1 °C 4.3 °C 1017.8 hPa SE 0.3 km/h 1.9 km/h 77 % 0 mm
23:29 8.1 °C 4.3 °C 1017.8 hPa SE 2.3 km/h 5.6 km/h 77 % 0 mm
23:34 8.1 °C 4.3 °C 1017.8 hPa SE 1.8 km/h 5.6 km/h 77 % 0 mm
23:39 8.1 °C 4.3 °C 1017.8 hPa SE 3.5 km/h 9.3 km/h 77 % 0 mm
23:44 8.1 °C 4.3 °C 1017.8 hPa SSE 0.2 km/h 5.6 km/h 77 % 0 mm
23:49 8.1 °C 4.3 °C 1017.5 hPa SE 1.6 km/h 4.8 km/h 77 % 0 mm
23:54 8.1 °C 4.3 °C 1017.5 hPa SE 0.6 km/h 3.7 km/h 77 % 0 mm
23:59 8.1 °C 4.3 °C 1017.5 hPa SE 1.3 km/h 3.7 km/h 77 % 0 mm
Crab Meadow Weather
Compliments of Weather Underground - 3 mb

Script developed by  Jim McMurry - jmcmurry@mwt.net Adapted for the template by  Wim van der Kuil - Leuven-Template.eu

Weather Terms: Downburst - A strong downdraft from a thunderstorm resulting in an outward burst of damaging winds on or near the ground. Downburst winds are often 50 to 100 mph and in a few cases, 100 to 150 mph. They can do as much damage as a small tornado.